Strona główna
METAR-TAF:

METAR-TAF

Lotnisko :

Port lotniczy Shannon

Shannon, Irlandia

Szerokość geograficzna: 52-42N, Długość geograficzna: 008-55W, wysokość: 14 m

Aktualna obserwacja pogody

Raport powstał 22 minut temu, godzina 02:30 UTC
Wiatr 6 kt od północ
Temperatura 6°C
Wilgotność 81%
Ciśnienie 1031 hPa
Widzialność 10 km lub więcej
Mało chmury na wysokości 3400 ft
Przerywane chmury na wysokości 4000 ft

METAR: EINN 010230Z 35006KT 9999 FEW034 BKN040 06/03 Q1031 NOSIG

czas: 03:52 (02:52 UTC)

Prognoza

Raport powstał 3 godziny i 52 minut temu, godzina 23:00 UTC
Prognoza ważna od 01 godzina 00 UTC do 01 godzina 24 UTC
Wiatr 6 kt od północ
Widzialność 10 km lub więcej
Przerywane chmury na wysokości 3500 ft
Stopniowe zmiany
od 01 godzina 11 UTC do 01 godzina 13 UTC
Wiatr 10 kt od północny zachód
Stopniowe zmiany
od 01 godzina 21 UTC do 01 godzina 23 UTC
Wiatr 7 kt od zachód

TAF: EINN 312300Z 0100/0124 36006KT 9999 BKN035 BECMG 0111/0113 32010KT BECMG 0121/0123 28007KT

Obserwacja i prognoza pogody dla ponad 4000 lotnisk (raport METAR i TAF).

Dostępne stacje oznaczono żółtymi i czerwonymi punktami na mapie.

Najedź kursorem aby zobaczyć nazwę stacji.

Kliknij aby zobaczyć obserwacje i prognozy pogody.

Aby zmienić mapę: kliknij na zielony przycisk z czarnym krzyżykiem, aby powiększyć; na zielony przycisk z myślnikiem, aby pomniejszyć; na zielone strzałki, aby przejść do map sąsiednich.


METAR-TAF: